KDXR/DXR METAR and TAF weather

Enter ICAO airport designator
Station Type Date Time Source
KDXR METAR 2018/07/19 06:53 UTC NOAA

KDXR 190653Z AUTO 23003KT 10SM CLR 13/12 A3005 RMK AO2 SLP173 T01330117


Station Type Date Time Source
KDXR Decoded METAR 2018/07/19 06:53 UTC NOAA

DANBURY MUNICIPAL AIRPORT, CT, United States (KDXR) 41-22N 073-29W 139M
Jul 19, 2018 - 02:53 AM EDT / 2018.07.19 0653 UTC
Wind: from the SW (230 degrees) at 3 MPH (3 KT):0
Visibility: 10 mile(s):0
Sky conditions: clear
Temperature: 55.9 F (13.3 C)
Dew Point: 53.1 F (11.7 C)
Relative Humidity: 90%
Pressure (altimeter): 30.05 in. Hg (1017 hPa)
ob: KDXR 190653Z AUTO 23003KT 10SM CLR 13/12 A3005 RMK AO2 SLP173 T01330117
cycle: 7

Station Type Date Time Source
KDXR TAF UTC NOAA

Error!


Example: see airport list